sensor_id;sensor_type;location;lat;lon;timestamp;pressure;altitude;pressure_sealevel;temperature;humidity
43818;BME280;29868;47.360;18.984;2023-11-18T00:00:19;61867.44;;;4.44;100.00
43818;BME280;29868;47.360;18.984;2023-11-18T00:02:44;61864.91;;;4.44;100.00
43818;BME280;29868;47.360;18.984;2023-11-18T00:05:11;61870.22;;;4.47;100.00
43818;BME280;29868;47.360;18.984;2023-11-18T00:07:37;61865.22;;;4.42;100.00
43818;BME280;29868;47.360;18.984;2023-11-18T00:10:03;61870.78;;;4.47;100.00
43818;BME280;29868;47.360;18.984;2023-11-18T00:12:30;61871.09;;;4.45;100.00
43818;BME280;29868;47.360;18.984;2023-11-18T00:14:55;61869.66;;;4.46;100.00
43818;BME280;29868;47.360;18.984;2023-11-18T00:17:20;61880.53;;;4.54;100.00
43818;BME280;29868;47.360;18.984;2023-11-18T00:19:46;61876.31;;;4.52;100.00
43818;BME280;29868;47.360;18.984;2023-11-18T00:22:12;61874.97;;;4.49;100.00
43818;BME280;29868;47.360;18.984;2023-11-18T00:24:38;61872.66;;;4.51;100.00
43818;BME280;29868;47.360;18.984;2023-11-18T00:27:04;61871.53;;;4.50;100.00
43818;BME280;29868;47.360;18.984;2023-11-18T00:29:34;61871.88;;;4.48;100.00
43818;BME280;29868;47.360;18.984;2023-11-18T00:32:02;61876.63;;;4.50;100.00
43818;BME280;29868;47.360;18.984;2023-11-18T00:34:28;61876.88;;;4.53;100.00
43818;BME280;29868;47.360;18.984;2023-11-18T00:36:55;61883.53;;;4.59;100.00
43818;BME280;29868;47.360;18.984;2023-11-18T00:39:22;61878.22;;;4.56;100.00
43818;BME280;29868;47.360;18.984;2023-11-18T00:41:48;61880.53;;;4.54;100.00
43818;BME280;29868;47.360;18.984;2023-11-18T00:44:14;61871.00;;;4.50;100.00
43818;BME280;29868;47.360;18.984;2023-11-18T00:46:39;61872.44;;;4.49;100.00
43818;BME280;29868;47.360;18.984;2023-11-18T00:49:05;61882.19;;;4.55;100.00
43818;BME280;29868;47.360;18.984;2023-11-18T00:51:31;61877.09;;;4.55;100.00
43818;BME280;29868;47.360;18.984;2023-11-18T00:53:56;61873.22;;;4.52;100.00
43818;BME280;29868;47.360;18.984;2023-11-18T00:56:21;61870.22;;;4.47;100.00
43818;BME280;29868;47.360;18.984;2023-11-18T00:58:50;61869.66;;;4.46;100.00
43818;BME280;29868;47.360;18.984;2023-11-18T01:01:15;61861.56;;;4.41;100.00
43818;BME280;29868;47.360;18.984;2023-11-18T01:03:45;61865.78;;;4.43;100.00
43818;BME280;29868;47.360;18.984;2023-11-18T01:06:11;61881.06;;;4.54;100.00
43818;BME280;29868;47.360;18.984;2023-11-18T01:08:37;61875.53;;;4.49;100.00
43818;BME280;29868;47.360;18.984;2023-11-18T01:11:03;61874.88;;;4.53;100.00
43818;BME280;29868;47.360;18.984;2023-11-18T01:13:30;61874.09;;;4.50;100.00
43818;BME280;29868;47.360;18.984;2023-11-18T01:15:56;61874.09;;;4.50;100.00
43818;BME280;29868;47.360;18.984;2023-11-18T01:18:22;61862.66;;;4.42;100.00
43818;BME280;29868;47.360;18.984;2023-11-18T01:20:47;61860.47;;;4.40;100.00
43818;BME280;29868;47.360;18.984;2023-11-18T01:23:12;61867.22;;;4.42;100.00
43818;BME280;29868;47.360;18.984;2023-11-18T01:25:38;61870.44;;;4.49;100.00
43818;BME280;29868;47.360;18.984;2023-11-18T01:28:05;61872.66;;;4.51;100.00
43818;BME280;29868;47.360;18.984;2023-11-18T01:30:31;61871.00;;;4.50;100.00
43818;BME280;29868;47.360;18.984;2023-11-18T01:32:58;61866.00;;;4.45;100.00
43818;BME280;29868;47.360;18.984;2023-11-18T01:35:26;61871.41;;;4.43;100.00
43818;BME280;29868;47.360;18.984;2023-11-18T01:37:52;61867.66;;;4.47;100.00
43818;BME280;29868;47.360;18.984;2023-11-18T01:40:20;61871.53;;;4.50;100.00
43818;BME280;29868;47.360;18.984;2023-11-18T01:42:45;61872.66;;;4.51;100.00
43818;BME280;29868;47.360;18.984;2023-11-18T01:45:12;61877.44;;;4.53;100.00
43818;BME280;29868;47.360;18.984;2023-11-18T01:47:39;61875.22;;;4.51;100.00
43818;BME280;29868;47.360;18.984;2023-11-18T01:50:06;61881.06;;;4.54;100.00
43818;BME280;29868;47.360;18.984;2023-11-18T01:52:34;61873.22;;;4.52;100.00
43818;BME280;29868;47.360;18.984;2023-11-18T01:54:59;61870.22;;;4.47;100.00
43818;BME280;29868;47.360;18.984;2023-11-18T01:57:25;61871.09;;;4.45;100.00
43818;BME280;29868;47.360;18.984;2023-11-18T01:59:53;61863.78;;;4.43;100.00
43818;BME280;29868;47.360;18.984;2023-11-18T02:02:19;61863.34;;;4.38;100.00
43818;BME280;29868;47.360;18.984;2023-11-18T02:04:46;61862.13;;;4.42;100.00
43818;BME280;29868;47.360;18.984;2023-11-18T02:07:12;61865.22;;;4.42;100.00
43818;BME280;29868;47.360;18.984;2023-11-18T02:09:40;61861.34;;;4.38;100.00
43818;BME280;29868;47.360;18.984;2023-11-18T02:12:23;61855.56;;;4.31;100.00
43818;BME280;29868;47.360;18.984;2023-11-18T02:14:52;61858.56;;;4.36;100.00
43818;BME280;29868;47.360;18.984;2023-11-18T02:17:21;61862.22;;;4.37;100.00
43818;BME280;29868;47.360;18.984;2023-11-18T02:19:51;61853.03;;;4.31;100.00
43818;BME280;29868;47.360;18.984;2023-11-18T02:22:18;61863.78;;;4.43;100.00
43818;BME280;29868;47.360;18.984;2023-11-18T02:24:43;61856.59;;;4.36;100.00
43818;BME280;29868;47.360;18.984;2023-11-18T02:27:09;61863.88;;;4.38;100.00
43818;BME280;29868;47.360;18.984;2023-11-18T02:29:42;61858.00;;;4.35;100.00
43818;BME280;29868;47.360;18.984;2023-11-18T02:32:23;61864.13;;;4.41;100.00
43818;BME280;29868;47.360;18.984;2023-11-18T02:35:09;61859.69;;;4.37;100.00
43818;BME280;29868;47.360;18.984;2023-11-18T02:37:40;61858.00;;;4.35;100.00
43818;BME280;29868;47.360;18.984;2023-11-18T02:40:11;61860.22;;;4.37;100.00
43818;BME280;29868;47.360;18.984;2023-11-18T02:42:44;61850.81;;;4.29;100.00
43818;BME280;29868;47.360;18.984;2023-11-18T02:45:11;61857.25;;;4.32;100.00
43818;BME280;29868;47.360;18.984;2023-11-18T02:47:42;61843.84;;;4.25;100.00
43818;BME280;29868;47.360;18.984;2023-11-18T02:50:09;61846.03;;;4.27;100.00
43818;BME280;29868;47.360;18.984;2023-11-18T02:52:40;61849.69;;;4.28;100.00
43818;BME280;29868;47.360;18.984;2023-11-18T02:55:06;61858.91;;;4.34;100.00
43818;BME280;29868;47.360;18.984;2023-11-18T02:57:35;61864.44;;;4.39;100.00
43818;BME280;29868;47.360;18.984;2023-11-18T03:00:01;61863.00;;;4.40;100.00
43818;BME280;29868;47.360;18.984;2023-11-18T03:02:27;61859.91;;;4.39;100.00
43818;BME280;29868;47.360;18.984;2023-11-18T03:05:01;61863.78;;;4.43;100.00
43818;BME280;29868;47.360;18.984;2023-11-18T03:07:26;61868.31;;;4.43;100.00
43818;BME280;29868;47.360;18.984;2023-11-18T03:09:54;61873.53;;;4.50;100.00
43818;BME280;29868;47.360;18.984;2023-11-18T03:12:22;61870.53;;;4.45;100.00
43818;BME280;29868;47.360;18.984;2023-11-18T03:14:48;61873.78;;;4.52;100.00
43818;BME280;29868;47.360;18.984;2023-11-18T03:17:14;61870.44;;;4.49;100.00
43818;BME280;29868;47.360;18.984;2023-11-18T03:19:39;61867.66;;;4.47;100.00
43818;BME280;29868;47.360;18.984;2023-11-18T03:22:04;61873.31;;;4.47;100.00
43818;BME280;29868;47.360;18.984;2023-11-18T03:24:30;61869.00;;;4.50;100.00
43818;BME280;29868;47.360;18.984;2023-11-18T03:26:56;61877.97;;;4.54;100.00
43818;BME280;29868;47.360;18.984;2023-11-18T03:29:21;61870.53;;;4.45;100.00
43818;BME280;29868;47.360;18.984;2023-11-18T03:31:48;61871.88;;;4.48;100.00
43818;BME280;29868;47.360;18.984;2023-11-18T03:34:15;61871.00;;;4.50;100.00
43818;BME280;29868;47.360;18.984;2023-11-18T03:36:40;61875.22;;;4.51;100.00
43818;BME280;29868;47.360;18.984;2023-11-18T03:39:06;61876.56;;;4.55;100.00
43818;BME280;29868;47.360;18.984;2023-11-18T03:41:31;61883.53;;;4.59;100.00
43818;BME280;29868;47.360;18.984;2023-11-18T03:43:57;61886.84;;;4.62;100.00
43818;BME280;29868;47.360;18.984;2023-11-18T03:46:22;61892.53;;;4.62;100.00
43818;BME280;29868;47.360;18.984;2023-11-18T03:48:48;61888.53;;;4.63;100.00
43818;BME280;29868;47.360;18.984;2023-11-18T03:51:13;61888.53;;;4.63;100.00
43818;BME280;29868;47.360;18.984;2023-11-18T03:53:42;61882.19;;;4.55;100.00
43818;BME280;29868;47.360;18.984;2023-11-18T03:56:08;61887.09;;;4.64;100.00
43818;BME280;29868;47.360;18.984;2023-11-18T03:58:33;61884.88;;;4.62;100.00
43818;BME280;29868;47.360;18.984;2023-11-18T04:01:00;61887.41;;;4.62;100.00
43818;BME280;29868;47.360;18.984;2023-11-18T04:03:26;61884.63;;;4.60;100.00
43818;BME280;29868;47.360;18.984;2023-11-18T04:05:52;61886.09;;;4.59;100.00
43818;BME280;29868;47.360;18.984;2023-11-18T04:08:18;61886.28;;;4.61;100.00
43818;BME280;29868;47.360;18.984;2023-11-18T04:10:43;61889.41;;;4.62;100.00
43818;BME280;29868;47.360;18.984;2023-11-18T04:13:09;61898.50;;;4.73;100.00
43818;BME280;29868;47.360;18.984;2023-11-18T04:15:34;61895.41;;;4.72;100.00
43818;BME280;29868;47.360;18.984;2023-11-18T04:18:00;61887.63;;;4.65;100.00
43818;BME280;29868;47.360;18.984;2023-11-18T04:20:26;61895.94;;;4.73;100.00
43818;BME280;29868;47.360;18.984;2023-11-18T04:22:51;61892.19;;;4.64;100.00
43818;BME280;29868;47.360;18.984;2023-11-18T04:25:17;61895.50;;;4.68;100.00
43818;BME280;29868;47.360;18.984;2023-11-18T04:27:42;61897.94;;;4.72;100.00
43818;BME280;29868;47.360;18.984;2023-11-18T04:30:08;61889.31;;;4.67;100.00
43818;BME280;29868;47.360;18.984;2023-11-18T04:32:38;61893.19;;;4.70;100.00
43818;BME280;29868;47.360;18.984;2023-11-18T04:35:03;61894.84;;;4.72;100.00
43818;BME280;29868;47.360;18.984;2023-11-18T04:37:34;61896.28;;;4.71;100.00
43818;BME280;29868;47.360;18.984;2023-11-18T04:40:00;61889.06;;;4.64;100.00
43818;BME280;29868;47.360;18.984;2023-11-18T04:42:26;61881.84;;;4.57;100.00
43818;BME280;29868;47.360;18.984;2023-11-18T04:44:53;61886.09;;;4.59;100.00
43818;BME280;29868;47.360;18.984;2023-11-18T04:47:18;61890.72;;;4.66;100.00
43818;BME280;29868;47.360;18.984;2023-11-18T04:49:44;61889.06;;;4.64;100.00
43818;BME280;29868;47.360;18.984;2023-11-18T04:52:09;61887.97;;;4.63;100.00
43818;BME280;29868;47.360;18.984;2023-11-18T04:54:35;61877.88;;;4.58;100.00
43818;BME280;29868;47.360;18.984;2023-11-18T04:57:01;61890.72;;;4.66;100.00
43818;BME280;29868;47.360;18.984;2023-11-18T04:59:27;61889.63;;;4.64;100.00
43818;BME280;29868;47.360;18.984;2023-11-18T05:01:52;61884.53;;;4.64;100.00
43818;BME280;29868;47.360;18.984;2023-11-18T05:04:18;61894.41;;;4.67;100.00
43818;BME280;29868;47.360;18.984;2023-11-18T05:06:44;61895.94;;;4.73;100.00
43818;BME280;29868;47.360;18.984;2023-11-18T05:09:09;61891.84;;;4.67;100.00
43818;BME280;29868;47.360;18.984;2023-11-18T05:11:35;61895.50;;;4.68;100.00
43818;BME280;29868;47.360;18.984;2023-11-18T05:14:01;61899.63;;;4.74;100.00
43818;BME280;29868;47.360;18.984;2023-11-18T05:16:29;61899.84;;;4.76;100.00
43818;BME280;29868;47.360;18.984;2023-11-18T05:18:54;61893.19;;;4.70;100.00
43818;BME280;29868;47.360;18.984;2023-11-18T05:21:20;61889.63;;;4.64;100.00
43818;BME280;29868;47.360;18.984;2023-11-18T05:23:45;61894.84;;;4.72;100.00
43818;BME280;29868;47.360;18.984;2023-11-18T05:26:11;61893.97;;;4.73;100.00
43818;BME280;29868;47.360;18.984;2023-11-18T05:28:36;61894.97;;;4.67;100.00
43818;BME280;29868;47.360;18.984;2023-11-18T05:31:03;61889.06;;;4.64;100.00
43818;BME280;29868;47.360;18.984;2023-11-18T05:33:30;61882.66;;;4.60;100.00
43818;BME280;29868;47.360;18.984;2023-11-18T05:35:56;61885.44;;;4.63;100.00
43818;BME280;29868;47.360;18.984;2023-11-18T05:38:22;61885.19;;;4.60;100.00
43818;BME280;29868;47.360;18.984;2023-11-18T05:40:49;61891.06;;;4.63;100.00
43818;BME280;29868;47.360;18.984;2023-11-18T05:43:27;61883.75;;;4.61;100.00
43818;BME280;29868;47.360;18.984;2023-11-18T05:46:05;61889.06;;;4.64;100.00
43818;BME280;29868;47.360;18.984;2023-11-18T05:48:48;61884.41;;;4.57;100.00
43818;BME280;29868;47.360;18.984;2023-11-18T05:51:22;61879.88;;;4.58;100.00
43818;BME280;29868;47.360;18.984;2023-11-18T05:53:48;61887.75;;;4.60;100.00
43818;BME280;29868;47.360;18.984;2023-11-18T05:56:14;61878.22;;;4.56;100.00
43818;BME280;29868;47.360;18.984;2023-11-18T05:58:42;61876.31;;;4.52;100.00
43818;BME280;29868;47.360;18.984;2023-11-18T06:01:08;61869.34;;;4.48;100.00
43818;BME280;29868;47.360;18.984;2023-11-18T06:03:34;61869.66;;;4.46;100.00
43818;BME280;29868;47.360;18.984;2023-11-18T06:06:10;61878.31;;;4.52;100.00
43818;BME280;29868;47.360;18.984;2023-11-18T06:08:39;61877.44;;;4.53;100.00
43818;BME280;29868;47.360;18.984;2023-11-18T06:11:12;61887.75;;;4.60;100.00
43818;BME280;29868;47.360;18.984;2023-11-18T06:13:48;61885.75;;;4.61;100.00
43818;BME280;29868;47.360;18.984;2023-11-18T06:16:21;61876.63;;;4.50;100.00
43818;BME280;29868;47.360;18.984;2023-11-18T06:18:54;61875.97;;;4.54;100.00
43818;BME280;29868;47.360;18.984;2023-11-18T06:21:23;61880.75;;;4.56;100.00
43818;BME280;29868;47.360;18.984;2023-11-18T06:24:01;61884.09;;;4.59;100.00
43818;BME280;29868;47.360;18.984;2023-11-18T06:26:29;61881.53;;;4.59;100.00
43818;BME280;29868;47.360;18.984;2023-11-18T06:28:55;61882.09;;;4.60;100.00
43818;BME280;29868;47.360;18.984;2023-11-18T06:31:21;61893.50;;;4.68;100.00
43818;BME280;29868;47.360;18.984;2023-11-18T06:33:48;61888.75;;;4.66;100.00
43818;BME280;29868;47.360;18.984;2023-11-18T06:38:40;61882.09;;;4.60;100.00
43818;BME280;29868;47.360;18.984;2023-11-18T06:41:06;61898.59;;;4.68;100.00
43818;BME280;29868;47.360;18.984;2023-11-18T06:43:36;61891.84;;;4.67;100.00
43818;BME280;29868;47.360;18.984;2023-11-18T06:46:35;61896.50;;;4.73;100.00
43818;BME280;29868;47.360;18.984;2023-11-18T06:49:03;61905.81;;;4.75;100.00
43818;BME280;29868;47.360;18.984;2023-11-18T06:51:34;61900.38;;;4.77;100.00
43818;BME280;29868;47.360;18.984;2023-11-18T06:54:00;61915.50;;;4.86;100.00
43818;BME280;29868;47.360;18.984;2023-11-18T06:56:29;61907.38;;;4.81;100.00
43818;BME280;29868;47.360;18.984;2023-11-18T06:58:55;61905.59;;;4.84;100.00
43818;BME280;29868;47.360;18.984;2023-11-18T07:01:21;61920.47;;;4.91;100.00
43818;BME280;29868;47.360;18.984;2023-11-18T07:03:47;61924.38;;;4.94;100.00
43818;BME280;29868;47.360;18.984;2023-11-18T07:06:19;61927.69;;;4.97;100.00
43818;BME280;29868;47.360;18.984;2023-11-18T07:08:49;61925.94;;;5.00;100.00
43818;BME280;29868;47.360;18.984;2023-11-18T07:11:15;61934.91;;;5.04;100.00
43818;BME280;29868;47.360;18.984;2023-11-18T07:13:42;61943.78;;;5.12;100.00
43818;BME280;29868;47.360;18.984;2023-11-18T07:16:07;61952.13;;;5.20;100.00
43818;BME280;29868;47.360;18.984;2023-11-18T07:18:38;61964.34;;;5.31;100.00
43818;BME280;29868;47.360;18.984;2023-11-18T07:21:04;61965.09;;;5.34;100.00
43818;BME280;29868;47.360;18.984;2023-11-18T07:23:31;61962.34;;;5.31;100.00
43818;BME280;29868;47.360;18.984;2023-11-18T07:25:56;61967.66;;;5.34;100.00
43818;BME280;29868;47.360;18.984;2023-11-18T07:28:23;61979.88;;;5.45;100.00
43818;BME280;29868;47.360;18.984;2023-11-18T07:30:48;61985.19;;;5.48;100.00
43818;BME280;29868;47.360;18.984;2023-11-18T07:33:15;61978.44;;;5.46;100.00
43818;BME280;29868;47.360;18.984;2023-11-18T07:35:41;61987.31;;;5.54;100.00
43818;BME280;29868;47.360;18.984;2023-11-18T07:38:07;61994.19;;;5.63;100.00
43818;BME280;29868;47.360;18.984;2023-11-18T07:40:33;61997.97;;;5.59;100.00
43818;BME280;29868;47.360;18.984;2023-11-18T07:42:59;62004.31;;;5.68;100.00
43818;BME280;29868;47.360;18.984;2023-11-18T07:45:34;62004.53;;;5.70;100.00
43818;BME280;29868;47.360;18.984;2023-11-18T07:47:59;62007.53;;;5.75;100.00
43818;BME280;29868;47.360;18.984;2023-11-18T07:50:24;62023.97;;;5.88;100.00
43818;BME280;29868;47.360;18.984;2023-11-18T07:52:50;62022.84;;;5.87;100.00
43818;BME280;29868;47.360;18.984;2023-11-18T07:55:15;62028.44;;;5.92;100.00
43818;BME280;29868;47.360;18.984;2023-11-18T07:57:41;62042.13;;;6.02;100.00
43818;BME280;29868;47.360;18.984;2023-11-18T08:00:08;62031.78;;;5.95;100.00
43818;BME280;29868;47.360;18.984;2023-11-18T08:02:37;62052.66;;;6.12;100.00
43818;BME280;29868;47.360;18.984;2023-11-18T08:05:06;62054.53;;;6.16;100.00
43818;BME280;29868;47.360;18.984;2023-11-18T08:07:36;62057.66;;;6.17;100.00
43818;BME280;29868;47.360;18.984;2023-11-18T08:10:05;62069.56;;;6.30;100.00
43818;BME280;29868;47.360;18.984;2023-11-18T08:12:33;62078.88;;;6.31;100.00
43818;BME280;29868;47.360;18.984;2023-11-18T08:15:00;62079.13;;;6.34;100.00
43818;BME280;29868;47.360;18.984;2023-11-18T08:17:25;62072.91;;;6.33;100.00
43818;BME280;29868;47.360;18.984;2023-11-18T08:19:54;62079.56;;;6.39;100.00
43818;BME280;29868;47.360;18.984;2023-11-18T08:22:19;62089.78;;;6.51;100.00
43818;BME280;29868;47.360;18.984;2023-11-18T08:24:48;62087.69;;;6.44;100.00
43818;BME280;29868;47.360;18.984;2023-11-18T08:27:14;62100.66;;;6.58;100.00
43818;BME280;29868;47.360;18.984;2023-11-18T08:29:40;62090.00;;;6.53;100.00
43818;BME280;29868;47.360;18.984;2023-11-18T08:32:06;62108.81;;;6.64;100.00
43818;BME280;29868;47.360;18.984;2023-11-18T08:34:35;62107.03;;;6.67;100.00
43818;BME280;29868;47.360;18.984;2023-11-18T08:37:03;62112.34;;;6.69;100.00
43818;BME280;29868;47.360;18.984;2023-11-18T08:39:28;62107.91;;;6.65;100.00
43818;BME280;29868;47.360;18.984;2023-11-18T08:41:54;62118.25;;;6.72;100.00
43818;BME280;29868;47.360;18.984;2023-11-18T08:44:20;62114.59;;;6.71;100.00
43818;BME280;29868;47.360;18.984;2023-11-18T08:46:45;62125.47;;;6.79;100.00
43818;BME280;29868;47.360;18.984;2023-11-18T08:49:12;62121.78;;;6.78;100.00
43818;BME280;29868;47.360;18.984;2023-11-18T08:51:37;62144.59;;;6.99;100.00
43818;BME280;29868;47.360;18.984;2023-11-18T08:54:04;62144.16;;;6.94;100.00
43818;BME280;29868;47.360;18.984;2023-11-18T08:56:50;62141.06;;;6.93;100.00
43818;BME280;29868;47.360;18.984;2023-11-18T08:59:21;62149.94;;;7.01;100.00
43818;BME280;29868;47.360;18.984;2023-11-18T09:01:53;62154.06;;;7.07;100.00
43818;BME280;29868;47.360;18.984;2023-11-18T09:04:27;62167.75;;;7.18;100.00
43818;BME280;29868;47.360;18.984;2023-11-18T09:06:53;62180.75;;;7.32;100.00
43818;BME280;29868;47.360;18.984;2023-11-18T09:09:21;62184.09;;;7.35;100.00
43818;BME280;29868;47.360;18.984;2023-11-18T09:11:56;62180.22;;;7.31;100.00
43818;BME280;29868;47.360;18.984;2023-11-18T09:14:24;62180.22;;;7.31;100.00
43818;BME280;29868;47.360;18.984;2023-11-18T09:16:53;62190.78;;;7.41;100.00
43818;BME280;29868;47.360;18.984;2023-11-18T09:19:24;62197.78;;;7.45;100.00
43818;BME280;29868;47.360;18.984;2023-11-18T09:21:50;62181.09;;;7.30;100.00
43818;BME280;29868;47.360;18.984;2023-11-18T09:24:17;62195.22;;;7.45;100.00
43818;BME280;29868;47.360;18.984;2023-11-18T09:26:45;62211.72;;;7.58;100.00
43818;BME280;29868;47.360;18.984;2023-11-18T09:29:13;62221.94;;;7.70;100.00
43818;BME280;29868;47.360;18.984;2023-11-18T09:31:49;62212.81;;;7.59;100.00
43818;BME280;29868;47.360;18.984;2023-11-18T09:34:15;62210.38;;;7.54;100.00
43818;BME280;29868;47.360;18.984;2023-11-18T09:36:43;62191.56;;;7.44;100.00
43818;BME280;29868;47.360;18.984;2023-11-18T09:39:08;62200.22;;;7.50;100.00
43818;BME280;29868;47.360;18.984;2023-11-18T09:41:35;62205.03;;;7.52;100.00
43818;BME280;29868;47.360;18.984;2023-11-18T09:44:00;62212.25;;;7.59;100.00
43818;BME280;29868;47.360;18.984;2023-11-18T09:46:28;62226.50;;;7.69;100.00
43818;BME280;29868;47.360;18.984;2023-11-18T09:49:04;62211.72;;;7.58;100.00
43818;BME280;29868;47.360;18.984;2023-11-18T09:51:41;62198.00;;;7.48;100.00
43818;BME280;29868;47.360;18.984;2023-11-18T09:59:49;62217.25;;;7.63;100.00
43818;BME280;29868;47.360;18.984;2023-11-18T10:02:10;62222.63;;;7.66;100.00
43818;BME280;29868;47.360;18.984;2023-11-18T10:04:39;62207.47;;;7.56;100.00
43818;BME280;29868;47.360;18.984;2023-11-18T10:07:08;62230.72;;;7.71;100.00
43818;BME280;29868;47.360;18.984;2023-11-18T10:09:35;62241.41;;;7.88;100.00
43818;BME280;29868;47.360;18.984;2023-11-18T10:12:08;62244.19;;;7.90;100.00
43818;BME280;29868;47.360;18.984;2023-11-18T10:14:37;62243.41;;;7.87;100.00
43818;BME280;29868;47.360;18.984;2023-11-18T10:17:07;62235.28;;;7.82;100.00
43818;BME280;29868;47.360;18.984;2023-11-18T10:19:54;62241.53;;;7.83;100.00
43818;BME280;29868;47.360;18.984;2023-11-18T10:22:28;62242.31;;;7.86;100.00
43818;BME280;29868;47.360;18.984;2023-11-18T10:24:56;62259.00;;;8.01;100.00
43818;BME280;29868;47.360;18.984;2023-11-18T10:27:26;62259.78;;;8.04;100.00
43818;BME280;29868;47.360;18.984;2023-11-18T10:29:56;62274.59;;;8.16;100.00
43818;BME280;29868;47.360;18.984;2023-11-18T10:32:22;62278.72;;;8.22;100.00
43818;BME280;29868;47.360;18.984;2023-11-18T10:34:54;62264.38;;;8.04;100.00
43818;BME280;29868;47.360;18.984;2023-11-18T10:37:20;62263.34;;;8.10;100.00
43818;BME280;29868;47.360;18.984;2023-11-18T10:39:48;62274.59;;;8.16;100.00
43818;BME280;29868;47.360;18.984;2023-11-18T10:42:19;62290.19;;;8.30;100.00
43818;BME280;29868;47.360;18.984;2023-11-18T10:44:57;62278.16;;;8.21;100.00
43818;BME280;29868;47.360;18.984;2023-11-18T10:47:33;62291.31;;;8.31;100.00
43818;BME280;29868;47.360;18.984;2023-11-18T10:49:59;62306.38;;;8.45;100.00
43818;BME280;29868;47.360;18.984;2023-11-18T10:52:26;62293.19;;;8.35;100.00
43818;BME280;29868;47.360;18.984;2023-11-18T10:54:55;62304.69;;;8.43;100.00
43818;BME280;29868;47.360;18.984;2023-11-18T10:57:24;62284.63;;;8.25;100.00
43818;BME280;29868;47.360;18.984;2023-11-18T11:00:00;62277.84;;;8.23;100.00
43818;BME280;29868;47.360;18.984;2023-11-18T11:02:30;62275.72;;;8.17;100.00
43818;BME280;29868;47.360;18.984;2023-11-18T11:05:01;62278.72;;;8.22;100.00
43818;BME280;29868;47.360;18.984;2023-11-18T11:07:27;62261.25;;;8.03;100.00
43818;BME280;29868;47.360;18.984;2023-11-18T11:09:55;62247.31;;;7.91;100.00
43818;BME280;29868;47.360;18.984;2023-11-18T11:12:23;62244.53;;;7.88;100.00
43818;BME280;29868;47.360;18.984;2023-11-18T11:15:03;62257.78;;;8.05;100.00
43818;BME280;29868;47.360;18.984;2023-11-18T11:17:33;62248.31;;;7.96;100.00
43818;BME280;29868;47.360;18.984;2023-11-18T11:20:06;62264.47;;;8.11;100.00
43818;BME280;29868;47.360;18.984;2023-11-18T11:22:55;62287.53;;;8.23;100.00
43818;BME280;29868;47.360;18.984;2023-11-18T11:25:32;62280.16;;;8.21;100.00
43818;BME280;29868;47.360;18.984;2023-11-18T11:28:20;62282.06;;;8.25;100.00
43818;BME280;29868;47.360;18.984;2023-11-18T11:33:34;62259.00;;;8.01;100.00
43818;BME280;29868;47.360;18.984;2023-11-18T11:36:12;62284.06;;;8.24;100.00
43818;BME280;29868;47.360;18.984;2023-11-18T11:38:41;62298.22;;;8.40;100.00
43818;BME280;29868;47.360;18.984;2023-11-18T11:41:12;62319.94;;;8.60;100.00
43818;BME280;29868;47.360;18.984;2023-11-18T11:43:46;62293.53;;;8.33;100.00
43818;BME280;29868;47.360;18.984;2023-11-18T11:46:12;62302.13;;;8.43;100.00
43818;BME280;29868;47.360;18.984;2023-11-18T11:48:39;62306.94;;;8.45;100.00
43818;BME280;29868;47.360;18.984;2023-11-18T11:51:16;62311.03;;;8.51;100.00
43818;BME280;29868;47.360;18.984;2023-11-18T11:54:09;62314.94;;;8.55;100.00
43818;BME280;29868;47.360;18.984;2023-11-18T11:56:47;62338.91;;;8.77;100.00
43818;BME280;29868;47.360;18.984;2023-11-18T11:59:15;62343.91;;;8.82;100.00
43818;BME280;29868;47.360;18.984;2023-11-18T12:01:41;62315.84;;;8.53;100.00
43818;BME280;29868;47.360;18.984;2023-11-18T12:04:14;62311.50;;;8.45;100.00
43818;BME280;29868;47.360;18.984;2023-11-18T12:06:47;62305.47;;;8.46;100.00
43818;BME280;29868;47.360;18.984;2023-11-18T12:09:14;62296.88;;;8.36;100.00
43818;BME280;29868;47.360;18.984;2023-11-18T12:11:48;62294.31;;;8.36;100.00
43818;BME280;29868;47.360;18.984;2023-11-18T12:14:16;62266.47;;;8.11;100.00
43818;BME280;29868;47.360;18.984;2023-11-18T12:17:01;62283.84;;;8.22;100.00
43818;BME280;29868;47.360;18.984;2023-11-18T12:19:34;62272.59;;;8.16;100.00
43818;BME280;29868;47.360;18.984;2023-11-18T12:22:21;62281.28;;;8.22;100.00
43818;BME280;29868;47.360;18.984;2023-11-18T12:33:10;62284.28;;;8.27;100.00
43818;BME280;29868;47.360;18.984;2023-11-18T12:41:01;62259.00;;;8.01;100.00
43818;BME280;29868;47.360;18.984;2023-11-18T12:43:48;62255.34;;;8.00;100.00
43818;BME280;29868;47.360;18.984;2023-11-18T12:49:15;62249.56;;;7.93;100.00
43818;BME280;29868;47.360;18.984;2023-11-18T12:51:42;62249.56;;;7.93;100.00
43818;BME280;29868;47.360;18.984;2023-11-18T12:54:11;62248.66;;;7.94;100.00
43818;BME280;29868;47.360;18.984;2023-11-18T12:56:38;62223.28;;;7.73;100.00
43818;BME280;29868;47.360;18.984;2023-11-18T12:59:10;62231.16;;;7.76;100.00
43818;BME280;29868;47.360;18.984;2023-11-18T13:01:38;62214.38;;;7.65;100.00
43818;BME280;29868;47.360;18.984;2023-11-18T13:04:07;62214.47;;;7.61;100.00
43818;BME280;29868;47.360;18.984;2023-11-18T13:06:34;62204.34;;;7.56;100.00
43818;BME280;29868;47.360;18.984;2023-11-18T13:09:00;62212.25;;;7.59;100.00
43818;BME280;29868;47.360;18.984;2023-11-18T13:11:31;62206.69;;;7.53;100.00
43818;BME280;29868;47.360;18.984;2023-11-18T13:13:58;62201.69;;;7.49;100.00
43818;BME280;29868;47.360;18.984;2023-11-18T13:16:24;62200.44;;;7.52;100.00
43818;BME280;29868;47.360;18.984;2023-11-18T13:18:50;62202.47;;;7.52;100.00
43818;BME280;29868;47.360;18.984;2023-11-18T13:21:18;62207.81;;;7.54;100.00
43818;BME280;29868;47.360;18.984;2023-11-18T13:23:51;62206.34;;;7.55;100.00